Terminal Aerodrome Forecast
Issued by NWS

Home | Current Version | Previous Version | Text Only | Print | Product List | Glossary On
Versions: 1 2 3 4 5 6 7 8 9 10 11 12 13 14 15 16 17 18 19 20
000
FTUS43 KJKL 142300
TAFSME
TAF
KSME 142340Z 1500/1524 20009G15KT P6SM BKN040
     FM150300 24007G15KT P6SM -SHRA VCTS SCT025CB BKN040
     FM151000 31010G18KT 4SM -RASN BR SCT008 OVC015
     FM151400 33008KT P6SM SCT025 BKN050=

USA.gov is the U.S. government's official web portal to all federal, state and local government web resources and services.